Terminal Aerodrome Forecast
Issued by NWS Shreveport, LA

Home | Current Version | Previous Version | Text Only | Print | Product List | Glossary On
Versions: 1 2 3 4 5 6 7 8 9 10 11 12 13 14 15
000
FTUS44 KSHV 310500
TAFTYR
TAF
KTYR 310535Z 3106/0106 09006KT P6SM OVC150
     FM311500 12008KT P6SM SCT050 OVC150
     FM312000 12008KT P6SM VCSH OVC050
     FM010400 15011KT 3SM -RA BR OVC030=

USA.gov is the U.S. government's official web portal to all federal, state and local government web resources and services.